createdAt,value
2018-10-11T00:04:10.120Z,13.40
2018-10-11T00:09:13.825Z,13.07
2018-10-11T00:14:21.151Z,12.37
2018-10-11T00:19:24.842Z,14.07
2018-10-11T00:24:29.295Z,14.50
2018-10-11T00:29:33.432Z,12.27
2018-10-11T00:34:38.270Z,13.87
2018-10-11T00:39:41.909Z,13.50
2018-10-11T00:44:49.190Z,13.37
2018-10-11T00:49:54.974Z,13.83
2018-10-11T01:01:08.913Z,13.13
2018-10-11T01:06:12.608Z,14.20
2018-10-11T01:11:16.335Z,13.60
2018-10-11T01:16:20.023Z,15.10
2018-10-11T01:21:23.911Z,14.43
2018-10-11T01:26:27.623Z,13.77
2018-10-11T01:31:31.185Z,13.67
2018-10-11T01:36:34.794Z,14.57
2018-10-11T01:41:39.598Z,14.23
2018-10-11T01:46:43.150Z,13.93
2018-10-11T01:51:46.811Z,13.40
2018-10-11T01:56:50.564Z,13.27
2018-10-11T02:01:54.151Z,14.47
2018-10-11T02:06:57.719Z,13.43
2018-10-11T02:12:07.407Z,12.97
2018-10-11T02:17:10.994Z,13.77
2018-10-11T02:22:14.603Z,13.90
2018-10-11T02:27:18.187Z,13.80
2018-10-11T02:32:21.810Z,13.80
2018-10-11T02:37:25.814Z,15.27
2018-10-11T02:42:29.354Z,15.67
2018-10-11T02:47:32.970Z,15.60
2018-10-11T02:52:36.722Z,13.73
2018-10-11T02:57:51.479Z,14.27
2018-10-11T03:02:55.954Z,14.37
2018-10-11T03:08:00.158Z,14.13
2018-10-11T03:13:04.010Z,14.67
2018-10-11T03:18:07.594Z,13.47
2018-10-11T03:23:12.051Z,14.70
2018-10-11T03:28:17.014Z,14.77
2018-10-11T03:33:20.620Z,15.10
2018-10-11T03:38:24.162Z,13.90
2018-10-11T03:43:27.714Z,13.10
2018-10-11T03:48:31.235Z,15.53
2018-10-11T03:53:34.778Z,14.90
2018-10-11T03:58:38.538Z,16.20
2018-10-11T04:03:43.350Z,14.87
2018-10-11T04:08:47.049Z,13.73
2018-10-11T04:13:50.603Z,15.23
2018-10-11T04:18:54.158Z,15.33
2018-10-11T04:23:57.808Z,14.40
2018-10-11T04:29:01.484Z,15.07
2018-10-11T04:34:05.058Z,14.43
2018-10-11T04:39:09.470Z,15.03
2018-10-11T04:44:13.163Z,14.70
2018-10-11T04:49:16.715Z,16.17
2018-10-11T04:54:20.352Z,15.67
2018-10-11T04:59:24.123Z,15.37
2018-10-11T05:04:28.927Z,14.77
2018-10-11T05:09:36.079Z,16.47
2018-10-11T05:14:40.448Z,16.73
2018-10-11T05:19:44.379Z,16.43
2018-10-11T05:24:48.145Z,16.70
2018-10-11T05:29:51.890Z,17.50
2018-10-11T05:34:56.019Z,16.23
2018-10-11T05:39:59.666Z,14.77
2018-10-11T05:45:07.278Z,16.70
2018-10-11T05:50:11.732Z,15.00
2018-10-11T05:55:15.545Z,15.00
2018-10-11T06:00:19.412Z,15.53
2018-10-11T06:05:25.400Z,16.33
2018-10-11T06:10:31.665Z,16.63
2018-10-11T06:15:35.853Z,16.10
2018-10-11T06:20:39.738Z,19.33
2018-10-11T06:25:44.350Z,19.73
2018-10-11T06:30:48.666Z,20.23
2018-10-11T06:35:52.477Z,19.17
2018-10-11T06:40:57.817Z,17.73
2018-10-11T06:46:01.983Z,16.80
2018-10-11T06:51:05.897Z,16.40
2018-10-11T06:56:09.582Z,17.97
2018-10-11T07:01:13.916Z,18.50
2018-10-11T07:06:17.590Z,18.10
2018-10-11T07:11:21.220Z,18.20
2018-10-11T07:16:24.908Z,14.03
2018-10-11T07:21:30.572Z,17.23
2018-10-11T07:26:34.442Z,18.80
2018-10-11T07:31:38.126Z,19.70
2018-10-11T07:36:41.777Z,18.57
2018-10-11T07:41:45.662Z,16.30
2018-10-11T07:46:50.845Z,24.13
2018-10-11T07:51:54.660Z,19.03
2018-10-11T07:56:59.144Z,17.47
2018-10-11T08:02:04.639Z,18.93
2018-10-11T08:07:09.434Z,16.27
2018-10-11T08:12:13.163Z,13.20
2018-10-11T08:17:18.801Z,15.97
2018-10-11T08:22:22.359Z,12.73
2018-10-11T08:27:26.175Z,14.93
2018-10-11T08:32:30.790Z,14.60
2018-10-11T08:37:35.799Z,13.63
2018-10-11T08:42:41.016Z,14.13
2018-10-11T08:47:44.594Z,14.50
2018-10-11T08:52:48.287Z,13.73
2018-10-11T08:57:52.087Z,13.87
2018-10-11T09:02:56.156Z,12.77
2018-10-11T09:08:00.201Z,13.37
2018-10-11T09:13:05.305Z,14.57
2018-10-11T09:18:12.674Z,14.63
2018-10-11T09:23:18.082Z,14.17
2018-10-11T09:28:21.688Z,13.67
2018-10-11T09:33:25.582Z,14.10
2018-10-11T09:38:37.026Z,14.20
2018-10-11T09:43:40.624Z,14.40
2018-10-11T09:48:44.314Z,13.97
2018-10-11T09:53:47.881Z,13.70
2018-10-11T09:58:51.654Z,13.97
2018-10-11T10:03:55.725Z,14.63
2018-10-11T10:09:00.312Z,14.33
2018-10-11T10:14:04.000Z,15.27
2018-10-11T10:19:07.646Z,13.77
2018-10-11T10:24:12.459Z,13.60
2018-10-11T10:29:16.330Z,14.43
2018-10-11T10:34:23.798Z,14.70
2018-10-11T10:39:27.410Z,15.93
2018-10-11T10:44:31.083Z,15.80
2018-10-11T10:49:34.747Z,16.07
2018-10-11T10:54:38.441Z,15.07
2018-10-11T10:59:42.222Z,15.10
2018-10-11T11:04:45.890Z,15.00
2018-10-11T11:09:49.549Z,16.17
2018-10-11T11:14:53.160Z,15.33
2018-10-11T11:19:56.881Z,16.60
2018-10-11T11:25:00.551Z,14.97
2018-10-11T11:30:04.241Z,14.53
2018-10-11T11:35:07.907Z,16.47
2018-10-11T11:40:12.605Z,17.37
2018-10-11T11:45:16.157Z,17.47
2018-10-11T11:50:19.900Z,15.43
2018-10-11T11:55:23.502Z,15.63
2018-10-11T12:00:27.907Z,15.30
2018-10-11T12:05:31.648Z,16.17
2018-10-11T12:10:36.279Z,15.90
2018-10-11T12:15:41.184Z,14.80
2018-10-11T12:20:45.946Z,13.57
2018-10-11T12:25:49.562Z,14.70
2018-10-11T12:30:57.166Z,14.47
2018-10-11T12:36:01.771Z,14.00
2018-10-11T12:41:05.342Z,13.50
2018-10-11T12:46:09.202Z,13.33
2018-10-11T12:51:13.966Z,14.63
2018-10-11T12:56:18.795Z,12.60
2018-10-11T13:01:24.065Z,12.10
2018-10-11T13:06:26.075Z,12.03
2018-10-11T13:11:31.698Z,10.47
2018-10-11T13:16:35.306Z,12.40
2018-10-11T13:21:38.962Z,12.03
2018-10-11T13:26:42.547Z,11.90
2018-10-11T13:31:46.302Z,10.53
2018-10-11T13:36:49.846Z,10.37
2018-10-11T13:41:54.489Z,11.97
2018-10-11T13:46:58.115Z,9.77
2018-10-11T13:52:03.758Z,10.67
2018-10-11T13:57:07.524Z,10.67
2018-10-11T14:02:11.134Z,11.93
2018-10-11T14:07:14.957Z,12.50
2018-10-11T14:12:19.607Z,13.30
2018-10-11T14:17:23.152Z,11.80
2018-10-11T14:22:26.754Z,12.20
2018-10-11T14:27:30.515Z,10.57
2018-10-11T14:32:34.051Z,11.87
2018-10-11T14:37:37.755Z,12.23
2018-10-11T14:42:42.570Z,12.07
2018-10-11T14:47:46.230Z,11.33
2018-10-11T14:52:49.834Z,12.00
2018-10-11T14:57:53.630Z,11.60
2018-10-11T15:02:57.163Z,10.63
2018-10-11T15:08:00.827Z,12.33
2018-10-11T15:13:04.402Z,11.23
2018-10-11T15:18:08.557Z,10.93
2018-10-11T15:23:12.930Z,10.70
2018-10-11T15:28:16.582Z,10.50
2018-10-11T15:33:20.250Z,9.73
2018-10-11T15:38:23.822Z,10.83
2018-10-11T15:43:27.435Z,10.00
2018-10-11T15:48:31.487Z,9.70
2018-10-11T15:53:35.124Z,11.67
2018-10-11T15:58:38.770Z,10.57
2018-10-11T16:03:42.279Z,10.40
2018-10-11T16:08:45.857Z,10.60
2018-10-11T16:13:49.475Z,10.80
2018-10-11T16:18:53.022Z,11.23
2018-10-11T16:23:57.682Z,10.90
2018-10-11T16:29:02.243Z,10.17
2018-10-11T16:34:05.914Z,10.73
2018-10-11T16:39:14.413Z,10.80
2018-10-11T16:44:17.996Z,10.27
2018-10-11T16:49:21.553Z,10.50
2018-10-11T16:54:26.245Z,10.67
2018-10-11T16:59:30.972Z,10.97
2018-10-11T17:04:34.712Z,11.67
2018-10-11T17:09:38.454Z,12.53
2018-10-11T17:14:42.056Z,16.97
2018-10-11T17:19:45.663Z,17.53
2018-10-11T17:24:50.407Z,13.20
2018-10-11T17:29:54.085Z,12.83
2018-10-11T17:34:59.824Z,19.90
2018-10-11T17:40:03.524Z,18.40
2018-10-11T17:45:07.707Z,28.83
2018-10-11T17:50:13.456Z,47.83
2018-10-11T17:55:22.587Z,26.73
2018-10-11T18:00:28.449Z,25.97
2018-10-11T18:05:32.050Z,24.97
2018-10-11T18:10:36.269Z,16.13
2018-10-11T18:15:39.943Z,17.20
2018-10-11T18:20:45.110Z,21.70
2018-10-11T18:25:48.872Z,15.47
2018-10-11T18:30:53.463Z,21.43
2018-10-11T18:35:57.484Z,25.23
2018-10-11T18:41:01.170Z,32.27
2018-10-11T18:46:05.184Z,18.53
2018-10-11T18:51:09.786Z,17.70
2018-10-11T18:56:14.514Z,18.53
2018-10-11T19:01:18.222Z,19.23
2018-10-11T19:06:22.816Z,17.43
2018-10-11T19:11:26.546Z,16.83
2018-10-11T19:16:30.273Z,17.53
2018-10-11T19:21:33.929Z,18.37
2018-10-11T19:26:38.090Z,24.60
2018-10-11T19:31:41.705Z,23.67
2018-10-11T19:36:45.291Z,19.13
2018-10-11T19:41:49.094Z,18.10
2018-10-11T19:46:52.810Z,17.77
2018-10-11T19:51:56.526Z,17.67
2018-10-11T19:57:00.183Z,18.27
2018-10-11T20:02:07.515Z,19.93
2018-10-11T20:07:11.419Z,19.73
2018-10-11T20:12:15.251Z,19.37
2018-10-11T20:17:19.117Z,17.97
2018-10-11T20:22:25.286Z,18.57
2018-10-11T20:27:29.072Z,19.97
2018-10-11T20:32:33.827Z,19.10
2018-10-11T20:37:39.042Z,17.77
2018-10-11T20:42:42.774Z,19.53
2018-10-11T20:47:46.487Z,19.77
2018-10-11T20:52:50.469Z,18.07
2018-10-11T20:57:54.145Z,17.90
2018-10-11T21:02:57.994Z,17.60
2018-10-11T21:08:02.743Z,19.63
2018-10-11T21:13:06.736Z,18.77
2018-10-11T21:18:10.383Z,18.83
2018-10-11T21:23:14.078Z,18.23
2018-10-11T21:28:17.896Z,17.57
2018-10-11T21:33:21.462Z,17.20
2018-10-11T21:38:25.597Z,19.27
2018-10-11T21:43:29.202Z,19.70
2018-10-11T21:48:32.870Z,18.73
2018-10-11T21:53:36.570Z,18.93
2018-10-11T21:58:40.306Z,18.83
2018-10-11T22:03:44.154Z,19.37
2018-10-11T22:08:48.392Z,19.33
2018-10-11T22:13:52.142Z,19.00
2018-10-11T22:18:58.421Z,19.57
2018-10-11T22:24:02.183Z,19.27
2018-10-11T22:29:05.871Z,19.13
2018-10-11T22:34:09.600Z,19.87
2018-10-11T22:39:14.113Z,18.20
2018-10-11T22:44:17.830Z,18.43
2018-10-11T22:49:23.571Z,19.67
2018-10-11T22:54:29.274Z,18.23
2018-10-11T22:59:34.661Z,18.67
2018-10-11T23:04:40.478Z,20.53
2018-10-11T23:15:28.051Z,20.83
2018-10-11T23:20:47.578Z,20.37
2018-10-11T23:25:51.174Z,19.27
2018-10-11T23:30:54.796Z,19.73
2018-10-11T23:57:55.758Z,20.00
